Time;durP1;ratioP1;P1;durP2;ratioP2;P2;SDS_P1;SDS_P2;PMS_P1;PMS_P2;Temp;Humidity;BMP_temperature;BMP_pressure;BME280_temperature;BME280_humidity;BME280_pressure;Samples;Min_cycle;Max_cycle;Signal;HPM_P1;HPM_P2
2022/12/29 00:02:02;;;;;;;16.97;7.97;;;;;;;2.97;70.58;102187.78;5101909;28;20031;-88
2022/12/29 00:04:28;;;;;;;16.95;7.70;;;;;;;3.09;70.10;102197.84;5106815;28;20277;-87
2022/12/29 00:06:54;;;;;;;14.38;7.53;;;;;;;3.07;69.87;102182.91;5107705;28;20031;-89
2022/12/29 00:09:19;;;;;;;18.85;8.05;;;;;;;3.22;70.12;102199.88;5117893;27;20123;-90
2022/12/29 00:11:45;;;;;;;14.43;7.65;;;;;;;3.21;69.89;102196.38;5126373;27;20530;-87
2022/12/29 00:16:55;;;;;;;13.57;7.13;;;;;;;2.96;70.35;102176.28;5124490;27;20303;-89
2022/12/29 00:35:57;;;;;;;11.40;6.20;;;;;;;3.06;72.07;102208.59;5137301;27;20105;-87
2022/12/29 00:44:05;;;;;;;14.30;6.05;;;;;;;2.83;72.93;102185.78;5141317;27;20030;-85
2022/12/29 00:46:35;;;;;;;12.48;5.78;;;;;;;2.83;73.14;102185.78;5142588;27;20135;-88
2022/12/29 00:51:45;;;;;;;11.73;5.78;;;;;;;3.04;73.40;102215.78;5129118;28;20031;-87
2022/12/29 00:54:11;;;;;;;13.25;5.70;;;;;;;3.11;72.81;102211.03;5104770;28;20095;-88
2022/12/29 00:56:37;;;;;;;14.60;6.13;;;;;;;3.07;73.68;102204.16;5124943;27;20058;-88
2022/12/29 00:59:03;;;;;;;12.32;5.90;;;;;;;2.90;73.71;102181.94;5147006;27;20023;-88
2022/12/29 01:01:29;;;;;;;;;;;;;;;3.08;73.86;102193.44;5118047;27;20019;-88
2022/12/29 01:03:54;;;;;;;13.88;5.63;;;;;;;2.93;73.95;102183.56;5136785;27;19988;-87
2022/12/29 01:06:20;;;;;;;10.95;5.63;;;;;;;2.80;73.76;102154.06;5108385;28;20080;-87
2022/12/29 01:08:45;;;;;;;12.53;5.67;;;;;;;2.90;74.33;102170.41;5113715;27;20031;-87
2022/12/29 01:11:11;;;;;;;9.67;5.50;;;;;;;2.85;74.31;102154.69;5129552;27;20279;-89
2022/12/29 01:13:38;;;;;;;;;;;;;;;2.95;74.69;102176.38;5124057;28;20019;-87
2022/12/29 01:16:04;;;;;;;11.80;5.43;;;;;;;3.07;73.92;102178.44;5126850;27;20006;-88
2022/12/29 01:18:30;;;;;;;13.88;6.05;;;;;;;3.05;73.41;102159.06;5118558;28;20369;-88
2022/12/29 01:21:03;;;;;;;11.83;5.83;;;;;;;2.97;74.09;102161.22;5090505;28;20035;-87
2022/12/29 01:23:30;;;;;;;10.05;5.30;;;;;;;3.04;74.02;102162.63;5112767;28;20269;-87
2022/12/29 01:25:56;;;;;;;11.70;5.63;;;;;;;3.11;73.36;102142.81;5114453;28;20067;-87
2022/12/29 01:28:21;;;;;;;14.48;5.75;;;;;;;3.20;72.85;102146.78;5054734;28;20036;-85
2022/12/29 01:30:47;;;;;;;13.43;5.75;;;;;;;3.27;72.81;102157.97;5101579;28;20024;-87
2022/12/29 01:33:13;;;;;;;12.85;5.47;;;;;;;3.24;72.77;102148.34;5071643;28;20090;-87
2022/12/29 01:35:38;;;;;;;9.95;5.35;;;;;;;3.10;72.62;102125.13;5089839;28;20149;-85
2022/12/29 01:38:04;;;;;;;9.57;4.60;;;;;;;3.03;72.54;102107.78;5109916;28;20028;-83
2022/12/29 01:40:29;;;;;;;8.63;5.00;;;;;;;3.27;72.26;102140.22;5079065;28;20024;-84
2022/12/29 01:42:55;;;;;;;10.98;5.13;;;;;;;3.08;72.49;102105.75;5067910;28;20039;-87
2022/12/29 01:45:20;;;;;;;11.07;5.40;;;;;;;2.99;72.70;102090.25;5075096;28;20036;-88
2022/12/29 01:47:54;;;;;;;10.07;5.10;;;;;;;3.24;72.75;102113.81;5103702;28;20726;-86
2022/12/29 01:50:28;;;;;;;10.70;5.00;;;;;;;2.97;73.33;102089.47;5084515;28;20054;-87
2022/12/29 01:53:03;;;;;;;11.32;4.90;;;;;;;2.94;74.06;102098.47;5086622;28;20206;-88
2022/12/29 01:55:30;;;;;;;9.93;4.93;;;;;;;2.93;74.56;102096.75;5071967;28;20131;-86
2022/12/29 01:57:56;;;;;;;9.93;4.53;;;;;;;3.03;74.04;102097.16;5064946;28;20028;-87
2022/12/29 02:00:21;;;;;;;10.85;4.95;;;;;;;3.20;73.50;102108.72;5074189;28;20036;-88
2022/12/29 02:02:54;;;;;;;9.27;4.80;;;;;;;2.89;73.96;102073.06;5083511;28;20029;-86
2022/12/29 02:05:33;;;;;;;8.57;4.55;;;;;;;2.95;74.79;102091.38;5092427;28;20053;-87
2022/12/29 02:07:59;;;;;;;8.95;4.90;;;;;;;2.81;75.16;102070.81;5069449;28;20033;-87
2022/12/29 02:10:25;;;;;;;10.45;4.85;;;;;;;2.88;75.11;102071.34;5059277;28;20040;-88
2022/12/29 02:12:51;;;;;;;;;;;;;;;3.09;74.64;102096.84;5076875;28;20032;-85
2022/12/29 02:15:17;;;;;;;10.00;4.72;;;;;;;3.01;74.84;102092.84;5108509;28;19942;-88
2022/12/29 02:17:51;;;;;;;11.18;4.57;;;;;;;3.07;74.90;102104.03;5088662;28;20484;-86
2022/12/29 02:20:38;;;;;;;13.13;4.90;;;;;;;2.88;74.81;102060.72;5098269;28;20036;-87
2022/12/29 02:23:27;;;;;;;9.93;5.10;;;;;;;2.68;75.71;102048.44;5102938;28;20043;-88
2022/12/29 02:26:17;;;;;;;10.95;5.20;;;;;;;3.09;75.28;102101.28;5133884;27;20046;-88
2022/12/29 02:29:06;;;;;;;14.20;5.57;;;;;;;3.11;75.18;102094.97;5135867;27;20042;-88
2022/12/29 02:31:54;;;;;;;11.80;5.35;;;;;;;3.12;75.37;102088.72;5131927;27;20038;-88
2022/12/29 02:34:48;;;;;;;24.70;8.60;;;;;;;3.11;75.28;102086.13;5129761;27;20023;-87
2022/12/29 02:37:33;;;;;;;16.63;7.30;;;;;;;2.79;76.01;102045.25;5110933;28;20035;-88
2022/12/29 02:40:07;;;;;;;14.27;5.57;;;;;;;3.01;75.71;102058.31;5113255;28;20268;-87
2022/12/29 02:42:36;;;;;;;9.38;4.30;;;;;;;3.16;76.13;102071.69;5099310;27;20062;-87
2022/12/29 02:45:52;;;;;;;9.52;4.63;;;;;;;3.16;76.01;102069.03;5141192;27;20031;-87
2022/12/29 02:48:31;;;;;;;8.35;4.20;;;;;;;3.28;75.67;102072.00;5019661;28;20029;-88
2022/12/29 02:51:01;;;;;;;6.65;3.70;;;;;;;3.21;76.06;102074.09;5015116;28;20120;-87
2022/12/29 02:56:13;;;;;;;;;;;;;;;3.17;75.86;102062.75;5098339;27;20043;-88
2022/12/29 02:58:38;;;;;;;12.88;6.07;;;;;;;2.99;76.00;102042.44;5139017;27;19927;-87
2022/12/29 03:01:20;;;;;;;10.35;4.82;;;;;;;3.08;76.56;102063.22;5114583;28;20028;-88
2022/12/29 03:03:54;;;;;;;10.13;4.80;;;;;;;3.03;76.61;102048.47;5135475;27;20053;-85
2022/12/29 03:06:55;;;;;;;11.90;5.05;;;;;;;3.26;75.89;102076.53;5127214;28;20035;-87
2022/12/29 03:09:42;;;;;;;8.50;4.40;;;;;;;3.13;75.72;102039.94;5031560;28;20045;-87
2022/12/29 03:12:16;;;;;;;10.57;4.28;;;;;;;3.11;76.92;102067.53;5135439;27;20066;-86
2022/12/29 03:18:03;;;;;;;9.52;4.60;;;;;;;3.20;76.88;102066.19;5146047;27;20394;-89
2022/12/29 03:20:52;;;;;;;9.40;4.43;;;;;;;3.17;76.93;102061.91;5136667;27;20084;-86
2022/12/29 03:23:18;;;;;;;11.82;4.90;;;;;;;2.86;76.86;102028.94;5131249;27;20036;-88
2022/12/29 03:25:48;;;;;;;9.07;4.90;;;;;;;3.11;77.45;102062.19;5121645;28;20046;-87
2022/12/29 03:28:20;;;;;;;14.00;4.90;;;;;;;3.02;77.18;102038.75;5121008;28;20118;-88
2022/12/29 03:30:45;;;;;;;10.40;4.90;;;;;;;3.21;77.12;102067.91;5122720;27;20019;-88
2022/12/29 03:33:12;;;;;;;12.17;5.23;;;;;;;3.14;77.68;102072.69;5103010;28;20020;-87
2022/12/29 03:35:39;;;;;;;11.38;5.03;;;;;;;3.01;77.44;102064.47;5117229;28;20051;-88
2022/12/29 03:38:04;;;;;;;;;;;;;;;3.22;77.40;102082.94;5132448;27;20030;-87
2022/12/29 03:40:29;;;;;;;;;;;;;;;3.19;77.23;102091.91;5134844;27;20348;-86
2022/12/29 03:42:55;;;;;;;14.63;5.93;;;;;;;2.95;77.42;102063.00;5121195;28;19935;-87
2022/12/29 03:45:20;;;;;;;41.37;15.40;;;;;;;2.88;78.02;102060.72;5109940;28;20032;-87
2022/12/29 03:47:46;;;;;;;50.95;17.98;;;;;;;3.04;76.88;102064.31;5137485;27;20031;-87
2022/12/29 03:50:12;;;;;;;38.75;14.65;;;;;;;3.21;76.28;102078.53;5122801;28;20063;-89
2022/12/29 03:52:40;;;;;;;31.17;11.32;;;;;;;3.27;75.76;102083.53;5122576;27;20026;-88
2022/12/29 03:55:06;;;;;;;13.35;6.13;;;;;;;3.27;75.89;102095.03;5113507;28;20536;-88
2022/12/29 03:57:31;;;;;;;14.60;5.65;;;;;;;3.08;75.52;102068.53;5094317;28;20039;-87
2022/12/29 03:59:57;;;;;;;11.33;5.60;;;;;;;3.13;75.33;102071.81;5124892;28;20111;-87
2022/12/29 04:02:23;;;;;;;11.80;5.67;;;;;;;3.20;75.29;102087.47;5113696;27;20356;-87
2022/12/29 04:04:49;;;;;;;13.82;6.88;;;;;;;3.09;74.98;102075.59;5128040;28;20079;-89
2022/12/29 04:07:14;;;;;;;23.60;10.48;;;;;;;3.15;74.36;102088.53;5095506;28;20130;-87
2022/12/29 04:09:40;;;;;;;23.93;10.90;;;;;;;3.18;73.82;102106.13;5129607;27;20116;-88
2022/12/29 04:12:06;;;;;;;24.83;11.82;;;;;;;3.21;73.46;102113.09;5110264;28;20278;-88
2022/12/29 04:14:31;;;;;;;31.23;14.40;;;;;;;3.07;73.68;102103.19;5126023;27;20065;-87
2022/12/29 04:16:57;;;;;;;32.60;13.75;;;;;;;2.90;73.48;102075.66;5136454;27;20062;-88
2022/12/29 04:19:22;;;;;;;31.13;14.32;;;;;;;3.01;73.23;102095.50;5150794;27;20078;-88
2022/12/29 04:21:48;;;;;;;27.67;14.20;;;;;;;3.00;73.16;102099.97;5114710;28;20020;-88
2022/12/29 04:24:13;;;;;;;34.87;13.47;;;;;;;2.84;74.03;102080.41;5120276;27;20297;-87
2022/12/29 04:26:39;;;;;;;18.25;8.57;;;;;;;2.94;74.36;102100.25;5148684;27;20307;-87
2022/12/29 04:29:05;;;;;;;17.40;8.50;;;;;;;2.95;74.89;102109.97;5118677;27;20051;-86
2022/12/29 04:31:30;;;;;;;16.17;7.75;;;;;;;2.93;75.27;102111.84;5137025;27;20066;-86
2022/12/29 04:33:57;;;;;;;;;;;;;;;2.95;76.25;102113.47;5117606;28;20019;-85
2022/12/29 04:36:22;;;;;;;;;;;;;;;2.94;76.27;102116.19;5147014;27;19913;-86
2022/12/29 04:38:48;;;;;;;13.48;5.68;;;;;;;2.91;76.34;102108.41;5129325;27;19911;-88
2022/12/29 04:41:13;;;;;;;16.13;6.90;;;;;;;2.88;76.44;102087.28;5115263;28;20027;-87
2022/12/29 04:43:39;;;;;;;15.57;6.47;;;;;;;2.90;77.72;102102.22;5107250;27;20027;-88
2022/12/29 04:46:05;;;;;;;12.80;7.07;;;;;;;2.95;78.75;102118.78;5122151;28;20039;-88
2022/12/29 04:48:30;;;;;;;17.98;7.68;;;;;;;2.80;78.75;102085.00;5110595;28;20032;-87
2022/12/29 04:50:56;;;;;;;16.97;8.00;;;;;;;2.78;78.49;102086.03;5106250;27;20069;-88
2022/12/29 04:53:21;;;;;;;18.30;8.13;;;;;;;2.91;78.33;102114.56;5110953;28;20295;-87
2022/12/29 04:55:51;;;;;;;17.10;8.52;;;;;;;3.00;78.49;102118.56;5142460;27;20024;-86
2022/12/29 04:58:16;;;;;;;17.15;8.55;;;;;;;3.01;78.34;102116.75;5128758;27;20038;-89
2022/12/29 05:00:42;;;;;;;16.98;8.15;;;;;;;3.05;77.65;102105.06;5130618;27;20038;-87
2022/12/29 05:03:07;;;;;;;19.95;8.75;;;;;;;3.11;77.79;102100.28;5113242;28;20031;-88
2022/12/29 05:05:33;;;;;;;21.58;9.38;;;;;;;2.97;77.69;102076.19;5090973;28;20031;-88
2022/12/29 05:07:58;;;;;;;20.83;9.97;;;;;;;3.05;77.33;102087.31;5124520;28;20083;-86
2022/12/29 05:10:24;;;;;;;20.10;9.93;;;;;;;3.09;77.21;102098.63;5138552;27;20273;-88
2022/12/29 05:12:49;;;;;;;21.15;10.18;;;;;;;3.11;77.36;102087.00;5090989;28;20027;-89
2022/12/29 05:15:15;;;;;;;26.20;11.30;;;;;;;3.24;77.01;102107.63;5113201;28;20035;-88
2022/12/29 05:18:15;;;;;;;32.53;12.02;;;;;;;3.34;77.24;102111.53;5122897;28;20024;-86
2022/12/29 05:20:40;;;;;;;21.75;9.98;;;;;;;3.08;77.58;102081.81;5146030;27;20039;-88
2022/12/29 05:23:06;;;;;;;21.35;10.10;;;;;;;3.09;77.59;102083.56;5121919;28;20038;-87
2022/12/29 05:25:32;;;;;;;20.40;9.95;;;;;;;3.11;77.88;102083.47;5145288;28;20042;-87
2022/12/29 05:27:57;;;;;;;23.13;10.67;;;;;;;3.29;77.70;102106.44;5129978;28;20073;-87
2022/12/29 05:30:23;;;;;;;20.58;8.95;;;;;;;3.20;78.09;102082.13;5132984;28;20027;-86
2022/12/29 05:32:48;;;;;;;21.85;9.57;;;;;;;3.42;77.86;102114.66;5089653;28;20027;-88
2022/12/29 05:35:14;;;;;;;25.60;10.43;;;;;;;3.20;77.70;102061.72;5119125;28;20035;-88
2022/12/29 05:37:39;;;;;;;23.58;11.07;;;;;;;3.17;77.95;102061.91;5133450;28;20043;-88
2022/12/29 05:40:06;;;;;;;27.43;12.60;;;;;;;3.39;78.13;102104.19;5125273;28;20042;-86
2022/12/29 05:42:31;;;;;;;28.88;11.65;;;;;;;3.38;77.96;102091.84;5097063;28;20284;-86
2022/12/29 05:44:57;;;;;;;22.70;10.83;;;;;;;3.38;77.98;102098.00;5122108;28;20053;-87
2022/12/29 05:47:22;;;;;;;22.30;11.90;;;;;;;3.46;77.83;102105.56;5109449;28;20265;-87
2022/12/29 05:49:48;;;;;;;27.13;10.93;;;;;;;3.56;78.18;102117.47;5109373;27;20281;-87
2022/12/29 05:52:41;;;;;;;32.42;11.30;;;;;;;3.63;77.84;102118.00;5129398;28;20068;-87
2022/12/29 05:55:07;;;;;;;24.50;10.38;;;;;;;3.53;77.45;102099.00;5129522;28;20490;-88
2022/12/29 05:57:33;;;;;;;21.58;10.40;;;;;;;3.67;77.32;102108.06;5111006;28;20095;-88
2022/12/29 05:59:58;;;;;;;23.23;9.52;;;;;;;3.65;77.27;102105.47;5127832;28;20031;-86
2022/12/29 06:02:24;;;;;;;20.55;8.95;;;;;;;3.69;77.55;102122.13;5130896;28;20058;-87
2022/12/29 06:04:49;;;;;;;20.77;9.75;;;;;;;3.68;77.54;102109.78;5129244;28;20024;-88
2022/12/29 06:07:15;;;;;;;23.10;10.10;;;;;;;3.63;77.34;102087.88;5111931;28;20031;-87
2022/12/29 06:09:40;;;;;;;16.07;7.97;;;;;;;3.75;77.67;102105.88;5114385;28;20340;-87
2022/12/29 06:12:06;;;;;;;20.38;9.13;;;;;;;3.69;78.01;102100.84;5118055;28;20054;-85
2022/12/29 06:14:32;;;;;;;20.52;8.80;;;;;;;3.84;77.60;102097.41;5105136;27;20028;-88
2022/12/29 06:16:57;;;;;;;17.88;8.77;;;;;;;3.95;77.82;102110.09;5092805;28;20031;-87
2022/12/29 06:19:23;;;;;;;17.55;7.18;;;;;;;3.92;78.20;102111.13;5122234;27;20023;-88
2022/12/29 06:21:52;;;;;;;21.30;8.68;;;;;;;4.18;77.67;102124.84;5129003;28;20141;-85
2022/12/29 06:24:18;;;;;;;21.67;9.88;;;;;;;4.02;77.03;102083.06;5115509;27;20073;-87
2022/12/29 06:26:43;;;;;;;30.85;10.18;;;;;;;4.36;75.99;102109.66;5135749;27;20031;-88
2022/12/29 06:29:09;;;;;;;20.20;10.30;;;;;;;4.41;75.47;102107.59;5121443;27;20027;-87
2022/12/29 06:31:34;;;;;;;23.48;9.88;;;;;;;4.57;75.17;102112.94;5128275;28;20439;-88
2022/12/29 06:34:00;;;;;;;28.65;9.75;;;;;;;4.53;75.33;102082.94;5129862;27;20067;-87
2022/12/29 06:36:26;;;;;;;32.93;12.13;;;;;;;4.69;74.52;102098.91;5100957;28;20043;-87
2022/12/29 06:38:54;;;;;;;29.38;10.93;;;;;;;4.78;74.08;102109.03;5130283;27;20268;-88
2022/12/29 06:41:20;;;;;;;20.13;7.75;;;;;;;4.90;75.54;102111.94;5124254;27;20031;-88
2022/12/29 06:43:46;;;;;;;25.88;10.98;;;;;;;5.13;74.93;102130.13;5132137;27;20042;-88
2022/12/29 06:46:11;;;;;;;25.88;10.75;;;;;;;5.15;74.21;102098.03;5146557;27;20042;-88
2022/12/29 06:48:42;;;;;;;17.02;8.20;;;;;;;5.37;73.97;102106.47;5118764;28;20028;-87
2022/12/29 06:51:07;;;;;;;33.15;10.55;;;;;;;5.36;73.50;102077.22;5110384;28;20026;-88
2022/12/29 06:53:33;;;;;;;15.05;6.32;;;;;;;5.68;73.44;102104.59;5128395;28;20028;-89
2022/12/29 06:55:59;;;;;;;34.58;11.48;;;;;;;5.75;72.43;102091.75;5143682;27;20087;-88
2022/12/29 06:58:24;;;;;;;21.93;8.50;;;;;;;5.74;72.36;102079.38;5151361;27;20026;-86
2022/12/29 07:00:50;;;;;;;10.70;5.30;;;;;;;6.07;72.01;102087.97;5117635;28;20032;-88
2022/12/29 07:03:15;;;;;;;15.13;5.47;;;;;;;5.87;72.02;102072.31;5128136;28;20261;-88
2022/12/29 07:05:41;;;;;;;14.18;7.38;;;;;;;6.09;71.57;102080.72;5116144;27;20031;-88
2022/12/29 07:08:06;;;;;;;18.70;6.60;;;;;;;6.17;71.50;102084.72;5116529;27;20038;-89
2022/12/29 07:10:32;;;;;;;11.65;5.40;;;;;;;6.39;70.69;102078.84;5152578;27;20043;-87
2022/12/29 07:12:57;;;;;;;13.63;6.50;;;;;;;6.49;70.05;102091.53;5116147;28;20020;-87
2022/12/29 07:15:23;;;;;;;21.67;7.22;;;;;;;6.64;70.63;102088.81;5132570;28;20277;-87
2022/12/29 07:17:54;;;;;;;14.73;5.28;;;;;;;6.78;69.71;102096.75;5097792;28;20023;-88
2022/12/29 07:20:20;;;;;;;11.38;5.30;;;;;;;7.39;68.79;102114.03;5126582;28;20046;-89
2022/12/29 07:22:47;;;;;;;9.18;4.82;;;;;;;8.99;63.35;102108.00;5113832;28;20020;-90
2022/12/29 07:25:12;;;;;;;13.75;5.65;;;;;;;10.95;56.79;102090.72;5131733;28;20043;-88
2022/12/29 07:27:38;;;;;;;18.00;7.90;;;;;;;12.89;51.05;102080.84;5115856;28;20115;-88
2022/12/29 07:30:04;;;;;;;26.17;7.70;;;;;;;14.58;46.56;102077.38;5121271;28;20027;-89
2022/12/29 07:32:32;;;;;;;20.45;6.13;;;;;;;16.25;42.94;102068.28;5153573;27;20098;-87
2022/12/29 07:34:58;;;;;;;13.05;5.60;;;;;;;17.48;39.05;102067.59;5140089;27;20046;-88
2022/12/29 07:37:23;;;;;;;;;;;;;;;18.26;36.86;102096.81;5129801;28;20023;-88
2022/12/29 07:39:49;;;;;;;7.80;4.32;;;;;;;19.04;35.04;102084.13;5134070;27;19966;-88
2022/12/29 07:42:14;;;;;;;;;;;;;;;19.99;33.40;102102.66;5117027;27;20091;-88
2022/12/29 07:44:39;;;;;;;13.88;5.30;;;;;;;20.75;31.56;102058.66;5140065;27;19916;-89
2022/12/29 07:47:05;;;;;;;9.15;4.03;;;;;;;21.36;29.92;102055.41;5132411;27;20034;-87
2022/12/29 07:49:31;;;;;;;11.60;5.03;;;;;;;22.10;29.63;102095.06;5132819;27;20003;-90
2022/12/29 07:51:56;;;;;;;9.88;4.30;;;;;;;23.11;28.23;102083.44;5133031;28;20050;-89
2022/12/29 07:54:23;;;;;;;12.32;5.10;;;;;;;23.67;26.60;102073.88;5111896;27;20083;-88
2022/12/29 07:56:48;;;;;;;11.02;3.95;;;;;;;24.01;25.59;102075.53;5132632;27;20106;-89
2022/12/29 07:59:14;;;;;;;11.40;4.18;;;;;;;24.32;25.27;102060.19;5116975;28;20050;-88
2022/12/29 08:01:39;;;;;;;8.52;3.83;;;;;;;24.33;24.93;102072.88;5135413;27;20026;-89
2022/12/29 08:04:05;;;;;;;9.50;4.40;;;;;;;24.85;24.73;102055.25;5141268;27;20035;-88
2022/12/29 08:06:31;;;;;;;14.90;5.55;;;;;;;25.54;24.00;102057.22;5130453;27;20034;-89
2022/12/29 08:08:57;;;;;;;14.50;5.15;;;;;;;26.15;22.95;102074.81;5136564;27;20038;-90
2022/12/29 08:11:22;;;;;;;11.10;5.88;;;;;;;26.59;22.60;102070.03;5132633;27;20030;-91
2022/12/29 08:13:48;;;;;;;12.77;6.03;;;;;;;26.88;21.65;102051.78;5114352;28;20024;-88
2022/12/29 08:16:14;;;;;;;9.93;5.82;;;;;;;26.90;21.52;102057.88;5129562;28;20118;-88
2022/12/29 08:18:39;;;;;;;11.75;7.47;;;;;;;27.36;20.88;102081.13;5128808;28;20141;-88
2022/12/29 08:21:05;;;;;;;14.98;8.80;;;;;;;27.67;21.02;102068.03;5146119;27;20019;-89
2022/12/29 08:23:31;;;;;;;22.40;10.88;;;;;;;27.92;20.34;102054.81;5137224;27;20043;-88
2022/12/29 08:26:00;;;;;;;19.30;11.82;;;;;;;28.44;19.90;102053.94;5112952;28;20047;-87
2022/12/29 08:28:26;;;;;;;27.88;14.88;;;;;;;28.78;19.47;102079.78;5097099;28;20026;-88
2022/12/29 08:30:52;;;;;;;16.85;11.25;;;;;;;28.54;19.54;102069.91;5086260;28;20032;-87
2022/12/29 08:33:17;;;;;;;20.13;11.32;;;;;;;28.72;19.17;102053.09;5111114;28;20024;-88
2022/12/29 08:35:43;;;;;;;20.33;10.98;;;;;;;29.51;18.46;102068.84;5112815;28;20124;-89
2022/12/29 08:38:11;;;;;;;17.38;11.27;;;;;;;29.75;18.14;102041.78;5101405;28;20048;-88
2022/12/29 08:40:39;;;;;;;19.63;10.82;;;;;;;30.16;17.94;102058.09;5125779;28;20027;-88
2022/12/29 08:43:05;;;;;;;18.23;10.35;;;;;;;30.25;17.53;102039.88;5131843;28;20657;-89
2022/12/29 08:45:31;;;;;;;25.00;11.88;;;;;;;30.73;17.26;102059.56;5129239;28;20692;-88
2022/12/29 08:47:56;;;;;;;21.05;10.70;;;;;;;30.90;17.02;102013.94;5091451;28;20036;-88
2022/12/29 08:50:22;;;;;;;20.35;10.43;;;;;;;31.47;16.61;102019.94;5109547;28;20444;-88
2022/12/29 08:52:48;;;;;;;19.55;10.20;;;;;;;32.28;15.84;102054.78;5125427;28;20085;-88
2022/12/29 08:55:13;;;;;;;15.68;9.23;;;;;;;32.44;15.84;102037.03;5101467;28;20050;-87
2022/12/29 08:57:39;;;;;;;12.57;7.20;;;;;;;32.46;15.21;102033.97;5110830;28;20051;-90
2022/12/29 09:00:08;;;;;;;14.02;7.70;;;;;;;32.99;14.88;102038.22;5125363;28;20034;-88
2022/12/29 09:02:37;;;;;;;13.70;8.80;;;;;;;33.20;14.63;102021.50;5112102;28;20104;-88
2022/12/29 09:05:02;;;;;;;17.25;10.73;;;;;;;33.08;14.73;102007.03;5109907;28;20031;-88
2022/12/29 09:07:28;;;;;;;19.17;9.15;;;;;;;33.81;14.27;102021.38;5105866;28;20118;-89
2022/12/29 09:09:53;;;;;;;18.67;8.20;;;;;;;34.03;14.30;102028.50;5125624;28;20028;-88
2022/12/29 09:12:19;;;;;;;9.77;6.72;;;;;;;34.01;14.09;102012.06;5127682;28;20032;-88
2022/12/29 09:14:46;;;;;;;13.65;8.13;;;;;;;34.43;13.67;102004.28;5099746;28;20049;-87
2022/12/29 09:19:55;;;;;;;13.27;5.95;;;;;;;34.45;13.29;102018.81;5113267;28;20126;-86
2022/12/29 09:22:21;;;;;;;11.23;6.90;;;;;;;34.72;13.36;102007.16;5123131;28;20075;-88
2022/12/29 09:24:46;;;;;;;15.90;6.97;;;;;;;35.09;13.38;102016.91;5106592;28;20061;-88
2022/12/29 09:27:13;;;;;;;14.02;6.15;;;;;;;35.41;13.03;102013.53;5148409;27;20470;-90
2022/12/29 09:29:38;;;;;;;24.98;8.27;;;;;;;35.89;12.68;102012.69;5110229;28;20099;-89
2022/12/29 09:32:04;;;;;;;16.88;7.07;;;;;;;36.00;12.57;102024.56;5121508;28;20034;-89
2022/12/29 09:34:29;;;;;;;13.20;9.60;;;;;;;35.66;12.52;102020.81;5143950;28;22185;-88
2022/12/29 09:36:56;;;;;;;11.75;7.88;;;;;;;35.92;12.71;102007.31;5111882;28;20031;-88
2022/12/29 09:39:22;;;;;;;13.98;8.63;;;;;;;35.85;13.00;102029.25;5120259;28;20035;-89
2022/12/29 09:41:49;;;;;;;15.82;6.55;;;;;;;36.25;12.39;102021.44;5117281;28;20073;-88
2022/12/29 09:44:46;;;;;;;13.73;6.13;;;;;;;36.51;11.78;102015.47;5129882;28;20030;-89
2022/12/29 09:47:13;;;;;;;9.00;4.55;;;;;;;35.88;12.47;102008.22;5116224;28;20032;-89
2022/12/29 09:49:43;;;;;;;9.77;5.32;;;;;;;36.12;12.25;101999.81;5121347;28;20152;-88
2022/12/29 09:52:31;;;;;;;12.73;6.50;;;;;;;35.78;12.40;101988.75;5117507;28;20038;-88
2022/12/29 09:55:05;;;;;;;11.50;6.20;;;;;;;35.74;12.36;101991.34;5115305;28;20055;-88
2022/12/29 09:57:45;;;;;;;11.48;6.00;;;;;;;36.25;11.92;101987.84;5124497;28;20040;-88
2022/12/29 10:00:16;;;;;;;11.77;6.47;;;;;;;36.32;11.78;101965.09;5113552;28;20023;-88
2022/12/29 10:02:56;;;;;;;10.40;5.25;;;;;;;34.87;13.00;101950.34;5153384;28;20068;-87
2022/12/29 10:05:29;;;;;;;9.27;4.85;;;;;;;35.14;13.05;101971.31;5133496;28;20027;-89
2022/12/29 10:08:32;;;;;;;9.88;5.97;;;;;;;35.15;13.02;101978.59;5131920;28;20032;-89
2022/12/29 10:11:07;;;;;;;;;;;;;;;34.76;12.96;101971.94;5147103;28;20039;-89
2022/12/29 10:13:57;;;;;;;13.05;6.30;;;;;;;34.93;13.16;101965.91;5121416;28;19995;-88
2022/12/29 10:16:26;;;;;;;11.10;6.57;;;;;;;35.11;13.00;101969.13;5143129;28;20019;-88
2022/12/29 10:19:09;;;;;;;15.57;7.10;;;;;;;34.89;12.83;101950.88;5122900;28;20125;-89
2022/12/29 10:22:16;;;;;;;18.45;7.40;;;;;;;35.04;12.94;101959.09;5131579;28;20079;-88
2022/12/29 10:24:43;;;;;;;13.50;8.02;;;;;;;35.20;12.96;101934.66;5125400;28;20459;-89
2022/12/29 10:27:12;;;;;;;13.35;8.35;;;;;;;35.27;13.05;101945.47;5125076;28;20043;-89
2022/12/29 10:29:41;;;;;;;13.80;7.45;;;;;;;35.17;12.83;101926.00;5129685;28;20054;-89
2022/12/29 10:32:11;;;;;;;11.85;6.82;;;;;;;35.67;12.10;101926.53;5113879;27;20033;-89
2022/12/29 10:34:38;;;;;;;10.98;6.80;;;;;;;35.53;12.78;101920.00;5149939;27;20029;-90
2022/12/29 10:37:29;;;;;;;17.95;7.53;;;;;;;35.45;12.53;101916.75;5114169;27;20020;-89
2022/12/29 10:39:55;;;;;;;12.48;7.05;;;;;;;35.88;12.39;101921.50;5134855;27;20062;-88
2022/12/29 10:42:39;;;;;;;12.15;7.03;;;;;;;35.57;12.62;101935.06;5118992;27;20037;-89
2022/12/29 10:45:05;;;;;;;10.40;7.10;;;;;;;34.41;13.04;101917.22;5142641;27;20027;-88
2022/12/29 10:47:37;;;;;;;12.65;7.35;;;;;;;34.70;13.12;101924.81;5141453;27;20030;-89
2022/12/29 10:50:03;;;;;;;11.07;7.95;;;;;;;34.34;13.24;101899.97;5103316;27;20022;-89
2022/12/29 10:52:29;;;;;;;14.18;8.27;;;;;;;33.71;13.78;101932.16;5148257;27;20114;-89
2022/12/29 10:54:57;;;;;;;11.30;7.85;;;;;;;34.06;13.44;101916.34;5146896;27;20034;-89
2022/12/29 10:57:40;;;;;;;13.27;8.07;;;;;;;33.96;13.80;101919.19;5108772;27;20043;-88
2022/12/29 11:00:17;;;;;;;11.25;8.05;;;;;;;34.06;13.97;101924.69;5122848;28;20380;-90
2022/12/29 11:03:04;;;;;;;13.23;7.90;;;;;;;32.63;14.78;101922.38;5133482;27;20468;-90
2022/12/29 11:05:29;;;;;;;10.60;7.40;;;;;;;32.13;15.41;101920.13;5135606;27;20046;-87
2022/12/29 11:07:58;;;;;;;12.63;7.65;;;;;;;30.64;16.58;101895.47;5148639;27;20286;-88
2022/12/29 11:10:30;;;;;;;11.38;7.78;;;;;;;31.05;16.54;101921.59;5125801;27;20051;-88
2022/12/29 11:13:11;;;;;;;11.88;7.88;;;;;;;30.89;16.24;101912.31;5126924;28;20036;-89
2022/12/29 11:15:44;;;;;;;11.65;7.20;;;;;;;29.53;18.04;101905.97;5100963;28;20043;-89
2022/12/29 11:18:39;;;;;;;10.27;6.60;;;;;;;30.06;17.67;101884.09;5127671;27;20144;-90
2022/12/29 11:21:07;;;;;;;13.15;6.75;;;;;;;30.63;17.40;101905.72;5134264;27;20087;-88
2022/12/29 11:23:37;;;;;;;10.98;5.93;;;;;;;30.60;17.75;101883.22;5121313;28;20038;-88
2022/12/29 11:26:07;;;;;;;11.35;6.30;;;;;;;31.26;17.27;101905.88;5113587;28;20031;-89
2022/12/29 11:28:33;;;;;;;9.38;5.63;;;;;;;30.46;17.65;101878.13;5139928;27;20016;-89
2022/12/29 11:31:02;;;;;;;9.52;5.10;;;;;;;29.69;18.88;101903.41;5113116;28;20058;-89
2022/12/29 11:33:29;;;;;;;7.28;5.45;;;;;;;28.69;19.89;101898.66;5143726;27;20019;-87
2022/12/29 11:36:14;;;;;;;8.13;5.63;;;;;;;28.86;20.04;101901.41;5133570;27;20047;-89
2022/12/29 11:38:50;;;;;;;10.07;5.38;;;;;;;28.55;20.35;101889.03;5126713;28;20055;-90
2022/12/29 11:41:29;;;;;;;7.10;4.93;;;;;;;26.81;22.10;101863.41;5139076;27;20409;-87
2022/12/29 11:43:59;;;;;;;10.95;5.55;;;;;;;26.53;22.85;101898.03;5126473;27;20022;-86
2022/12/29 11:46:27;;;;;;;7.47;5.25;;;;;;;24.66;25.23;101895.91;5111000;28;20016;-89
2022/12/29 11:48:53;;;;;;;9.77;5.38;;;;;;;25.12;24.55;101889.09;5109100;28;20042;-90
2022/12/29 11:51:41;;;;;;;7.97;5.35;;;;;;;24.95;25.05;101902.63;5128686;28;20031;-89
2022/12/29 11:54:07;;;;;;;8.65;5.05;;;;;;;23.70;26.58;101875.78;5154694;27;20012;-88
2022/12/29 11:56:37;;;;;;;7.55;4.78;;;;;;;23.70;26.99;101881.28;5135296;28;20064;-89
2022/12/29 11:59:42;;;;;;;7.70;5.03;;;;;;;23.27;27.75;101904.69;5136158;28;20016;-87
2022/12/29 12:02:20;;;;;;;8.57;4.97;;;;;;;21.70;29.98;101900.50;5126126;28;20062;-88
2022/12/29 12:04:45;;;;;;;9.25;5.68;;;;;;;21.91;30.15;101864.81;5121954;28;20023;-88
2022/12/29 12:07:12;;;;;;;8.95;5.15;;;;;;;21.36;31.17;101890.44;5119030;27;20023;-88
2022/12/29 12:09:54;;;;;;;11.40;6.07;;;;;;;21.80;30.83;101890.03;5123356;27;20340;-89
2022/12/29 12:12:46;;;;;;;11.05;6.38;;;;;;;21.97;30.47;101892.41;5122468;27;20034;-89